Portada
METAR-TAF:

METAR-TAF

Aeropuertos :

Teruel, España

Aeródromo de Teruel

latitud: 40-24-43N, longitud: 01-13-03W, altitud: 1030 m

Observación

El informe se hizo hace 41 minutos, a las 07:30 UTC
Viento 1 kt con dirección variable
Temperatura 5°C
Humedad 87%
Presión 1027 hPa
Visibilidad 10 km o más
Cielo nuboso a una altura de 5700 ft

METAR: LETL 280730Z AUTO VRB01KT 9999 BKN057 05/03 Q1027

Hora: 10:11 (08:11 UTC)


TAF: falta

Observaciones y pronósticos meteorológicos de más de 4000 aeropuertos (mensajes METAR y TAF).

Los puntos amarillos y rojos representan las estaciones disponibles.

Ponga el ratón en el punto deseado para ver el nombre de la estación.

Haga clic para ver las observaciones y los pronósticos meteorológicos.

Para cambiar el mapa : haga clic en los botones verdes con una cruz de color negro para hacer un zoom, en el botón verde con un guión para alejar o en las flechas verdes para mapas adyacentes.


METAR-TAF: